Time;durP1;ratioP1;P1;durP2;ratioP2;P2;SDS_P1;SDS_P2;PMS_P1;PMS_P2;Temp;Humidity;BMP_temperature;BMP_pressure;BME280_temperature;BME280_humidity;BME280_pressure;Samples;Min_cycle;Max_cycle;Signal;HPM_P1;HPM_P2
2022/01/05 00:00:35;;;;;;;0.40;0.30;;;5.20;99.90;;;;;;5133104;27;20747;-71
2022/01/05 00:03:00;;;;;;;0.40;0.20;;;5.20;99.90;;;;;;5132928;27;20374;-71
2022/01/05 00:05:26;;;;;;;0.40;0.20;;;5.20;99.90;;;;;;5132120;27;20882;-71
2022/01/05 00:07:52;;;;;;;0.40;0.20;;;5.10;99.90;;;;;;5133132;27;20419;-71
2022/01/05 00:10:18;;;;;;;0.40;0.20;;;5.20;99.90;;;;;;5132392;27;20382;-71
2022/01/05 00:12:43;;;;;;;0.40;0.20;;;5.20;99.90;;;;;;5132938;27;20377;-71
2022/01/05 00:15:09;;;;;;;0.40;0.20;;;5.10;99.90;;;;;;5132133;27;20386;-71
2022/01/05 00:17:35;;;;;;;0.40;0.20;;;5.10;99.90;;;;;;5132661;27;20711;-71
2022/01/05 00:20:02;;;;;;;0.40;0.20;;;5.20;99.90;;;;;;5114224;27;20397;-71
2022/01/05 00:22:28;;;;;;;0.40;0.20;;;5.20;99.90;;;;;;5131668;27;20735;-71
2022/01/05 00:24:53;;;;;;;0.40;0.20;;;5.40;99.90;;;;;;5132110;27;20379;-71
2022/01/05 00:27:19;;;;;;;0.40;0.20;;;5.60;99.90;;;;;;5131982;27;20371;-71
2022/01/05 00:29:45;;;;;;;0.40;0.20;;;5.80;99.90;;;;;;5132688;27;20379;-71
2022/01/05 00:32:10;;;;;;;0.40;0.20;;;6.10;99.90;;;;;;5132413;27;20371;-70
2022/01/05 00:34:36;;;;;;;0.40;0.20;;;6.30;99.90;;;;;;5132233;27;20458;-70
2022/01/05 00:37:03;;;;;;;0.40;0.20;;;6.40;99.90;;;;;;5132320;27;20386;-69
2022/01/05 00:39:28;;;;;;;0.40;0.20;;;6.50;99.90;;;;;;5131762;27;20406;-69
2022/01/05 00:41:54;;;;;;;0.40;0.20;;;6.60;99.90;;;;;;5132223;27;20403;-69
2022/01/05 00:44:20;;;;;;;0.40;0.20;;;6.50;99.90;;;;;;5122267;27;20408;-69
2022/01/05 00:46:46;;;;;;;0.40;0.20;;;6.50;99.90;;;;;;5110829;28;20490;-68
2022/01/05 00:49:12;;;;;;;0.40;0.20;;;6.60;99.90;;;;;;5111406;28;20380;-67
2022/01/05 00:51:38;;;;;;;0.40;0.20;;;6.70;99.90;;;;;;5111245;28;20802;-68
2022/01/05 00:54:05;;;;;;;0.40;0.20;;;6.80;99.90;;;;;;5111525;28;20426;-69
2022/01/05 00:56:30;;;;;;;0.40;0.20;;;6.70;99.90;;;;;;5110460;28;20400;-70
2022/01/05 00:58:56;;;;;;;0.40;0.20;;;6.70;99.90;;;;;;5111604;28;20394;-70
2022/01/05 01:01:22;;;;;;;0.40;0.20;;;6.70;99.90;;;;;;5111157;28;20437;-70
2022/01/05 01:03:48;;;;;;;0.40;0.20;;;6.70;99.90;;;;;;5110870;28;20775;-70
2022/01/05 01:06:14;;;;;;;0.40;0.20;;;6.60;99.90;;;;;;5111486;28;20529;-70
2022/01/05 01:08:39;;;;;;;0.40;0.20;;;6.70;99.90;;;;;;5110665;28;20429;-72
2022/01/05 01:11:05;;;;;;;0.40;0.30;;;6.70;99.90;;;;;;5110966;28;20380;-71
2022/01/05 01:13:31;;;;;;;0.40;0.20;;;6.60;99.90;;;;;;5111694;28;20380;-72
2022/01/05 01:15:57;;;;;;;0.40;0.20;;;6.70;99.90;;;;;;5110563;28;20381;-72
2022/01/05 01:18:22;;;;;;;0.40;0.30;;;6.70;99.90;;;;;;5111000;28;20437;-72
2022/01/05 01:20:49;;;;;;;0.40;0.30;;;6.70;99.90;;;;;;5110769;28;20388;-70
2022/01/05 01:23:18;;;;;;;0.40;0.20;;;6.70;99.90;;;;;;5111249;28;20384;-70
2022/01/05 01:25:45;;;;;;;0.40;0.30;;;6.70;99.90;;;;;;5110451;28;20420;-72
2022/01/05 01:28:11;;;;;;;0.40;0.20;;;6.70;99.90;;;;;;5111218;28;20383;-69
2022/01/05 01:30:36;;;;;;;0.40;0.20;;;6.70;99.90;;;;;;5110830;28;20381;-71
2022/01/05 01:33:02;;;;;;;0.40;0.20;;;6.70;99.90;;;;;;5110180;28;20841;-72
2022/01/05 01:35:28;;;;;;;0.40;0.20;;;6.70;99.90;;;;;;5110802;28;20404;-69
2022/01/05 01:37:55;;;;;;;0.40;0.20;;;6.70;99.90;;;;;;5110394;28;20814;-72
2022/01/05 01:40:21;;;;;;;0.40;0.20;;;6.80;99.90;;;;;;5110963;28;20373;-70
2022/01/05 01:42:47;;;;;;;0.40;0.20;;;6.80;99.90;;;;;;5110497;28;20728;-70
2022/01/05 01:45:13;;;;;;;0.40;0.20;;;6.80;99.90;;;;;;5110034;28;20412;-71
2022/01/05 01:47:40;;;;;;;0.40;0.20;;;6.80;99.90;;;;;;5110867;28;20444;-71
2022/01/05 01:50:06;;;;;;;0.40;0.20;;;6.90;99.90;;;;;;5109996;28;20833;-70
2022/01/05 01:52:32;;;;;;;0.40;0.20;;;6.90;99.90;;;;;;5110709;28;20493;-71
2022/01/05 01:54:58;;;;;;;0.40;0.20;;;6.90;99.90;;;;;;5110921;28;20430;-71
2022/01/05 01:57:25;;;;;;;0.40;0.20;;;6.70;99.90;;;;;;5109944;28;20390;-70
2022/01/05 01:59:51;;;;;;;0.40;0.20;;;6.80;99.90;;;;;;5110952;28;20379;-71
2022/01/05 02:02:17;;;;;;;1.40;0.90;;;6.80;99.90;;;;;;5109846;28;20373;-71
2022/01/05 02:04:44;;;;;;;0.40;0.30;;;6.90;99.90;;;;;;5110855;28;20455;-70
2022/01/05 02:07:10;;;;;;;0.40;0.30;;;6.90;99.90;;;;;;5109857;28;20860;-71
2022/01/05 02:09:37;;;;;;;0.40;0.20;;;6.90;99.90;;;;;;5110919;28;20729;-70
2022/01/05 02:12:05;;;;;;;0.40;0.20;;;6.80;99.90;;;;;;5111847;28;20791;-71
2022/01/05 02:14:31;;;;;;;0.40;0.20;;;6.90;99.90;;;;;;5114224;28;20415;-71
2022/01/05 02:16:58;;;;;;;0.40;0.20;;;6.90;99.90;;;;;;5114509;28;20773;-71
2022/01/05 02:19:24;;;;;;;0.40;0.20;;;6.80;99.90;;;;;;5113928;28;20701;-71
2022/01/05 02:21:49;;;;;;;0.40;0.20;;;6.90;99.90;;;;;;5114119;28;20380;-71
2022/01/05 02:24:15;;;;;;;0.40;0.28;;;6.80;99.90;;;;;;5114483;28;20412;-70
2022/01/05 02:26:41;;;;;;;0.40;0.20;;;6.80;99.90;;;;;;5113625;28;20451;-72
2022/01/05 02:29:07;;;;;;;0.40;0.20;;;6.80;99.90;;;;;;5114458;28;20429;-71
2022/01/05 02:31:33;;;;;;;0.40;0.30;;;6.80;99.90;;;;;;5113962;28;20380;-71
2022/01/05 02:34:00;;;;;;;0.40;0.20;;;6.70;99.90;;;;;;5114241;28;20717;-72
2022/01/05 02:36:25;;;;;;;0.40;0.20;;;6.70;99.90;;;;;;5113558;28;20388;-72
2022/01/05 02:38:52;;;;;;;0.40;0.20;;;6.70;99.90;;;;;;5114363;28;20395;-72
2022/01/05 02:41:19;;;;;;;0.40;0.20;;;6.70;99.90;;;;;;5114125;28;20369;-72
2022/01/05 02:43:45;;;;;;;0.40;0.20;;;6.70;99.90;;;;;;5118191;27;20446;-73
2022/01/05 02:46:13;;;;;;;0.40;0.20;;;6.70;99.90;;;;;;5134231;27;20407;-72
2022/01/05 02:48:39;;;;;;;0.40;0.20;;;6.60;99.90;;;;;;5133860;27;20401;-72
2022/01/05 02:51:06;;;;;;;0.40;0.20;;;6.70;99.90;;;;;;5134638;27;20731;-72
2022/01/05 02:53:33;;;;;;;0.40;0.20;;;6.60;99.90;;;;;;5134404;27;20375;-71
2022/01/05 02:55:59;;;;;;;0.40;0.20;;;6.70;99.90;;;;;;5134245;27;20447;-72
2022/01/05 02:58:24;;;;;;;0.40;0.20;;;6.70;99.90;;;;;;5134279;27;20408;-73
2022/01/05 03:00:50;;;;;;;0.40;0.30;;;6.70;99.90;;;;;;5133800;27;20462;-72
2022/01/05 03:03:16;;;;;;;0.40;0.28;;;6.60;99.90;;;;;;5133960;27;20412;-73
2022/01/05 03:05:42;;;;;;;0.40;0.30;;;6.60;99.90;;;;;;5133336;27;20463;-73
2022/01/05 03:08:07;;;;;;;0.40;0.20;;;6.70;99.90;;;;;;5133883;27;20371;-72
2022/01/05 03:10:33;;;;;;;0.40;0.20;;;6.70;99.90;;;;;;5134433;27;20780;-72
2022/01/05 03:12:59;;;;;;;0.40;0.30;;;6.70;99.90;;;;;;5133735;27;20434;-73
2022/01/05 03:15:25;;;;;;;0.40;0.20;;;6.60;99.90;;;;;;5134137;27;20661;-72
2022/01/05 03:17:50;;;;;;;0.40;0.20;;;6.60;99.90;;;;;;5115020;27;20410;-72
2022/01/05 03:20:20;;;;;;;0.40;0.20;;;6.60;99.90;;;;;;5133884;27;20378;-73
2022/01/05 03:22:46;;;;;;;0.40;0.20;;;6.70;99.90;;;;;;5133742;27;20385;-73
2022/01/05 03:25:16;;;;;;;0.40;0.20;;;6.70;99.90;;;;;;5132699;27;20778;-73
2022/01/05 03:27:50;;;;;;;0.40;0.30;;;6.70;99.90;;;;;;5133978;27;20417;-72
2022/01/05 03:30:19;;;;;;;0.40;0.20;;;6.70;99.90;;;;;;5133162;27;20370;-72
2022/01/05 03:33:08;;;;;;;0.40;0.20;;;6.60;99.90;;;;;;5133538;27;20382;-72
2022/01/05 03:35:35;;;;;;;0.40;0.20;;;6.60;99.90;;;;;;5132866;27;20391;-73
2022/01/05 03:38:02;;;;;;;0.40;0.20;;;6.60;99.90;;;;;;5114694;27;20687;-73
2022/01/05 03:40:28;;;;;;;0.40;0.20;;;6.40;99.90;;;;;;5133625;27;20359;-73
2022/01/05 03:42:54;;;;;;;0.40;0.20;;;6.40;99.90;;;;;;5133360;27;20822;-73
2022/01/05 03:45:19;;;;;;;0.40;0.20;;;6.30;99.90;;;;;;5114336;27;20495;-73
2022/01/05 03:47:45;;;;;;;0.40;0.20;;;6.30;99.90;;;;;;5112737;28;20460;-73
2022/01/05 03:50:11;;;;;;;0.40;0.30;;;6.30;99.90;;;;;;5111977;28;20408;-73
2022/01/05 03:52:37;;;;;;;0.40;0.30;;;6.30;99.90;;;;;;5112746;28;20372;-73
2022/01/05 03:55:04;;;;;;;0.40;0.20;;;6.30;99.90;;;;;;5112474;28;20922;-73
2022/01/05 03:57:29;;;;;;;0.40;0.20;;;6.30;99.90;;;;;;5112310;28;20380;-73
2022/01/05 03:59:55;;;;;;;0.40;0.20;;;6.30;99.90;;;;;;5112668;28;20721;-73
2022/01/05 04:02:21;;;;;;;0.40;0.30;;;6.20;99.90;;;;;;5111873;28;20425;-74
2022/01/05 04:04:47;;;;;;;0.40;0.30;;;6.30;99.90;;;;;;5112541;28;20400;-73
2022/01/05 04:07:14;;;;;;;0.40;0.30;;;6.20;99.90;;;;;;5112437;28;20408;-72
2022/01/05 04:09:40;;;;;;;0.40;0.20;;;6.30;99.90;;;;;;5111434;28;20380;-73
2022/01/05 04:12:06;;;;;;;0.40;0.20;;;6.20;99.90;;;;;;5112345;28;20376;-73
2022/01/05 04:14:32;;;;;;;0.40;0.20;;;6.20;99.90;;;;;;5111332;28;20376;-73
2022/01/05 04:16:57;;;;;;;0.40;0.20;;;6.30;99.90;;;;;;5112298;28;20384;-73
2022/01/05 04:19:23;;;;;;;0.40;0.20;;;6.30;99.90;;;;;;5112213;28;20380;-73
2022/01/05 04:21:50;;;;;;;0.40;0.20;;;6.40;99.90;;;;;;5111591;28;20372;-73
2022/01/05 04:24:16;;;;;;;0.40;0.20;;;6.30;99.90;;;;;;5112091;28;20376;-73
2022/01/05 04:26:41;;;;;;;0.40;0.20;;;6.30;99.90;;;;;;5111028;28;20458;-73
2022/01/05 04:29:07;;;;;;;0.40;0.20;;;6.30;99.90;;;;;;5112008;28;20377;-73
2022/01/05 04:31:33;;;;;;;0.40;0.20;;;6.40;99.90;;;;;;5111160;28;20403;-73
2022/01/05 04:33:58;;;;;;;0.40;0.30;;;6.30;99.90;;;;;;5112022;28;20364;-73
2022/01/05 04:36:24;;;;;;;0.40;0.20;;;6.10;99.90;;;;;;5093207;28;20390;-72
2022/01/05 04:38:50;;;;;;;0.40;0.20;;;6.10;99.90;;;;;;5111247;28;20775;-73
2022/01/05 04:41:15;;;;;;;0.40;0.20;;;6.00;99.90;;;;;;5111828;28;20391;-75
2022/01/05 04:43:41;;;;;;;0.40;0.20;;;5.90;99.90;;;;;;5097126;27;20430;-75
2022/01/05 04:46:07;;;;;;;0.40;0.20;;;5.90;99.90;;;;;;5132194;27;20720;-74
2022/01/05 04:48:33;;;;;;;0.40;0.30;;;5.80;99.90;;;;;;5132043;27;20379;-75
2022/01/05 04:50:58;;;;;;;0.40;0.20;;;5.80;99.90;;;;;;5131583;27;20379;-75
2022/01/05 04:53:24;;;;;;;0.40;0.20;;;5.80;99.90;;;;;;5132129;27;20402;-76
2022/01/05 04:55:49;;;;;;;0.40;0.28;;;5.70;99.90;;;;;;5131660;27;20393;-76
2022/01/05 04:58:15;;;;;;;0.40;0.20;;;5.70;99.90;;;;;;5132082;27;20726;-77
2022/01/05 05:00:41;;;;;;;0.40;0.20;;;5.70;99.90;;;;;;5131984;27;20367;-78
2022/01/05 05:03:07;;;;;;;0.40;0.20;;;4.90;99.90;;;;;;5112740;27;20928;-77
2022/01/05 05:05:34;;;;;;;0.40;0.20;;;3.90;99.90;;;;;;5131462;27;20407;-75
2022/01/05 05:08:01;;;;;;;0.40;0.20;;;3.50;99.90;;;;;;5130918;27;20823;-74
2022/01/05 05:10:27;;;;;;;0.40;0.20;;;3.60;99.90;;;;;;5131740;27;20478;-74
2022/01/05 05:12:52;;;;;;;0.40;0.20;;;3.80;99.90;;;;;;5113344;27;20470;-76
2022/01/05 05:15:18;;;;;;;0.40;0.22;;;4.00;99.90;;;;;;5131022;27;20731;-76
2022/01/05 05:17:44;;;;;;;0.40;0.20;;;4.20;99.90;;;;;;5113283;28;20393;-75
2022/01/05 05:20:10;;;;;;;0.80;0.60;;;4.30;99.90;;;;;;5131071;27;20391;-76
2022/01/05 05:22:36;;;;;;;0.40;0.30;;;4.30;99.90;;;;;;5131809;27;20386;-75
2022/01/05 05:25:03;;;;;;;0.40;0.20;;;4.40;99.90;;;;;;5112780;28;20899;-75
2022/01/05 05:27:29;;;;;;;0.40;0.28;;;4.60;99.90;;;;;;5131927;28;20426;-75
2022/01/05 05:29:55;;;;;;;0.40;0.20;;;4.60;99.90;;;;;;5131642;28;20371;-74
2022/01/05 05:32:20;;;;;;;0.40;0.20;;;4.70;99.90;;;;;;5131092;28;20374;-75
2022/01/05 05:34:46;;;;;;;0.40;0.20;;;4.80;99.90;;;;;;5131657;28;20378;-75
2022/01/05 05:37:12;;;;;;;0.40;0.20;;;4.80;99.90;;;;;;5131321;28;20383;-75
2022/01/05 05:39:38;;;;;;;0.40;0.20;;;4.80;99.90;;;;;;5131501;28;20854;-74
2022/01/05 05:42:04;;;;;;;0.40;0.20;;;4.80;99.90;;;;;;5131621;28;20522;-74
2022/01/05 05:44:29;;;;;;;0.40;0.20;;;4.80;99.90;;;;;;5119626;28;20796;-75
2022/01/05 05:46:55;;;;;;;0.40;0.20;;;4.90;99.90;;;;;;5093335;28;20442;-75
2022/01/05 05:49:21;;;;;;;0.40;0.20;;;4.80;99.90;;;;;;5114526;28;20372;-75
2022/01/05 05:51:46;;;;;;;0.40;0.30;;;4.80;99.90;;;;;;5115086;28;20408;-75
2022/01/05 05:54:12;;;;;;;0.40;0.20;;;4.80;99.90;;;;;;5114958;28;20386;-75
2022/01/05 05:56:37;;;;;;;0.40;0.40;;;4.80;99.90;;;;;;5114092;28;20480;-75
2022/01/05 05:59:03;;;;;;;0.40;0.20;;;4.80;99.90;;;;;;5114991;28;20406;-75
2022/01/05 06:01:29;;;;;;;0.40;0.30;;;4.80;99.90;;;;;;5114425;28;20886;-74
2022/01/05 06:03:55;;;;;;;0.40;0.20;;;4.70;99.90;;;;;;5114798;28;20698;-74
2022/01/05 06:06:21;;;;;;;0.40;0.20;;;4.80;99.90;;;;;;5114825;28;20402;-74
2022/01/05 06:08:46;;;;;;;0.40;0.30;;;4.80;99.90;;;;;;5113831;28;20478;-74
2022/01/05 06:11:12;;;;;;;0.40;0.30;;;4.80;99.90;;;;;;5114771;28;20392;-74
2022/01/05 06:13:38;;;;;;;0.40;0.20;;;4.70;99.90;;;;;;5113900;28;20437;-74
2022/01/05 06:16:04;;;;;;;0.40;0.20;;;4.70;99.90;;;;;;5114592;28;20910;-74
2022/01/05 06:18:29;;;;;;;0.40;0.30;;;4.70;99.90;;;;;;5096398;28;20487;-73
2022/01/05 06:20:55;;;;;;;0.40;0.30;;;4.60;99.90;;;;;;5095432;28;20855;-74
2022/01/05 06:23:21;;;;;;;0.40;0.20;;;4.60;99.90;;;;;;5114098;28;20433;-74
2022/01/05 06:25:46;;;;;;;0.40;0.30;;;4.60;99.90;;;;;;5113461;28;20488;-74
2022/01/05 06:28:12;;;;;;;0.40;0.30;;;4.50;99.90;;;;;;5114437;28;20407;-74
2022/01/05 06:30:39;;;;;;;0.40;0.20;;;4.50;99.90;;;;;;5114334;28;20429;-73
2022/01/05 06:33:04;;;;;;;0.40;0.20;;;4.40;99.90;;;;;;5095758;28;20807;-73
2022/01/05 06:35:30;;;;;;;0.40;0.30;;;4.40;99.90;;;;;;5114612;28;20518;-73
2022/01/05 06:37:56;;;;;;;0.40;0.20;;;4.40;99.90;;;;;;5113557;28;20364;-72
2022/01/05 06:40:23;;;;;;;0.40;0.20;;;4.30;99.90;;;;;;5114257;28;20376;-72
2022/01/05 06:42:48;;;;;;;0.40;0.20;;;4.40;99.90;;;;;;5113516;28;20453;-73
2022/01/05 06:45:14;;;;;;;0.40;0.20;;;4.30;99.90;;;;;;5131378;27;20493;-72
2022/01/05 06:47:40;;;;;;;0.40;0.20;;;4.30;99.90;;;;;;5134889;27;20862;-72
2022/01/05 06:50:06;;;;;;;0.40;0.30;;;4.30;99.90;;;;;;5115527;27;20416;-73
2022/01/05 06:52:32;;;;;;;0.40;0.30;;;4.30;99.90;;;;;;5134589;27;20812;-72
2022/01/05 06:54:58;;;;;;;0.40;0.20;;;4.40;99.90;;;;;;5115194;27;20460;-73
2022/01/05 06:57:24;;;;;;;0.40;0.20;;;4.30;99.90;;;;;;5134031;27;20455;-72
2022/01/05 06:59:50;;;;;;;0.40;0.20;;;4.40;99.90;;;;;;5134067;27;20700;-72
2022/01/05 07:02:16;;;;;;;0.40;0.20;;;4.50;99.90;;;;;;5133706;27;20773;-72
2022/01/05 07:04:41;;;;;;;0.40;0.20;;;4.40;99.90;;;;;;5115609;27;20386;-72
2022/01/05 07:07:07;;;;;;;0.40;0.20;;;4.40;99.90;;;;;;5115257;27;20402;-73
2022/01/05 07:09:33;;;;;;;0.40;0.20;;;4.40;99.90;;;;;;5134039;27;20916;-72
2022/01/05 07:11:59;;;;;;;0.40;0.20;;;4.40;99.90;;;;;;5133984;27;20383;-72
2022/01/05 07:14:25;;;;;;;0.40;0.30;;;4.30;99.90;;;;;;5133685;27;20828;-73
2022/01/05 07:16:51;;;;;;;0.40;0.20;;;4.20;99.90;;;;;;5133937;27;20473;-73
2022/01/05 07:19:17;;;;;;;0.40;0.30;;;4.10;99.90;;;;;;5133282;27;20477;-73
2022/01/05 07:21:44;;;;;;;0.40;0.30;;;4.10;99.90;;;;;;5133856;27;20712;-73
2022/01/05 07:24:12;;;;;;;0.40;0.20;;;4.10;99.90;;;;;;5133772;27;20379;-72
2022/01/05 07:26:39;;;;;;;0.40;0.20;;;4.00;99.90;;;;;;5133232;27;20431;-73
2022/01/05 07:29:05;;;;;;;0.40;0.20;;;3.90;99.90;;;;;;5133821;27;20457;-73
2022/01/05 07:31:31;;;;;;;0.40;0.30;;;3.90;99.90;;;;;;5133143;27;20414;-73
2022/01/05 07:33:56;;;;;;;0.40;0.20;;;3.90;99.90;;;;;;5133865;27;20846;-72
2022/01/05 07:36:22;;;;;;;0.40;0.20;;;3.80;99.90;;;;;;5132914;27;20457;-73
2022/01/05 07:38:48;;;;;;;0.40;0.20;;;3.80;99.90;;;;;;5133364;27;20382;-73
2022/01/05 07:41:13;;;;;;;0.40;0.30;;;3.80;99.90;;;;;;5133410;27;20397;-73
2022/01/05 07:43:39;;;;;;;0.40;0.30;;;3.80;99.90;;;;;;5132883;27;20371;-73
2022/01/05 07:46:05;;;;;;;0.40;0.30;;;3.80;99.90;;;;;;5133008;27;20438;-72
2022/01/05 07:48:30;;;;;;;0.40;0.20;;;3.80;99.90;;;;;;5132436;27;20375;-73
2022/01/05 07:50:56;;;;;;;0.40;0.20;;;3.70;99.90;;;;;;5133408;27;20381;-73
2022/01/05 07:53:22;;;;;;;0.40;0.20;;;3.70;99.90;;;;;;5133424;27;20474;-73
2022/01/05 07:55:47;;;;;;;0.40;0.30;;;3.60;99.90;;;;;;5132576;27;20394;-73
2022/01/05 07:58:14;;;;;;;0.40;0.20;;;3.60;99.90;;;;;;5133899;27;20375;-73
2022/01/05 08:00:40;;;;;;;0.60;0.50;;;3.60;99.90;;;;;;5132630;27;20888;-73
2022/01/05 08:03:06;;;;;;;0.40;0.20;;;3.60;99.90;;;;;;5133554;27;20375;-73
2022/01/05 08:05:32;;;;;;;0.40;0.20;;;3.50;99.90;;;;;;5133706;27;20430;-73
2022/01/05 08:07:57;;;;;;;0.40;0.30;;;3.50;99.90;;;;;;5132927;27;20359;-72
2022/01/05 08:10:23;;;;;;;0.40;0.20;;;3.50;99.90;;;;;;5132449;27;20375;-72
2022/01/05 08:12:49;;;;;;;0.40;0.30;;;3.50;99.90;;;;;;5132513;27;20367;-72
2022/01/05 08:15:15;;;;;;;0.40;0.20;;;3.60;99.90;;;;;;5133334;27;20862;-72
2022/01/05 08:17:42;;;;;;;0.40;0.20;;;3.60;99.90;;;;;;5133230;27;20508;-72
2022/01/05 08:20:10;;;;;;;0.40;0.20;;;3.70;99.90;;;;;;5133236;27;20402;-72
2022/01/05 08:22:40;;;;;;;0.40;0.20;;;3.70;99.90;;;;;;5133076;27;20371;-72
2022/01/05 08:25:07;;;;;;;0.40;0.20;;;3.70;99.90;;;;;;5131976;27;21194;-72
2022/01/05 08:27:33;;;;;;;0.40;0.30;;;3.70;99.90;;;;;;5132867;27;20386;-72
2022/01/05 08:30:04;;;;;;;0.40;0.20;;;3.80;99.90;;;;;;5132043;27;20371;-73
2022/01/05 08:32:30;;;;;;;0.40;0.30;;;3.70;99.90;;;;;;5133020;27;20378;-73
2022/01/05 08:34:56;;;;;;;0.40;0.20;;;3.80;99.90;;;;;;5132245;27;20378;-73
2022/01/05 08:37:21;;;;;;;0.40;0.30;;;3.70;99.90;;;;;;5132625;27;20457;-72
2022/01/05 08:39:50;;;;;;;0.40;0.30;;;3.70;99.90;;;;;;5132822;27;20450;-71
2022/01/05 08:42:16;;;;;;;0.40;0.20;;;3.80;99.90;;;;;;5131740;27;20858;-72
2022/01/05 08:44:41;;;;;;;0.40;0.20;;;3.80;99.90;;;;;;5119704;27;20437;-72
2022/01/05 08:47:08;;;;;;;3.20;0.70;;;3.70;99.90;;;;;;5111434;28;20408;-72
2022/01/05 08:49:34;;;;;;;0.40;0.20;;;3.80;99.90;;;;;;5112058;28;20384;-73
2022/01/05 08:52:00;;;;;;;0.40;0.30;;;3.80;99.90;;;;;;5111510;28;20388;-73
2022/01/05 08:54:27;;;;;;;0.40;0.30;;;3.90;99.90;;;;;;5111402;28;20513;-73
2022/01/05 08:56:54;;;;;;;0.40;0.20;;;3.90;99.90;;;;;;5112249;28;20408;-73
2022/01/05 08:59:20;;;;;;;0.40;0.30;;;3.90;99.90;;;;;;5111002;28;20887;-73
2022/01/05 09:01:46;;;;;;;0.40;0.30;;;3.80;99.90;;;;;;5111947;28;20376;-73
2022/01/05 09:04:11;;;;;;;0.40;0.20;;;3.70;99.90;;;;;;5111338;28;20364;-74
2022/01/05 09:06:37;;;;;;;0.40;0.20;;;3.90;99.90;;;;;;5111827;28;20407;-73
2022/01/05 09:09:04;;;;;;;0.40;0.30;;;3.60;99.90;;;;;;5111916;28;20383;-73
2022/01/05 09:11:30;;;;;;;0.40;0.30;;;3.80;99.90;;;;;;5111045;28;20387;-72
2022/01/05 09:13:56;;;;;;;0.40;0.20;;;3.70;99.90;;;;;;5111804;28;20455;-72
2022/01/05 09:16:21;;;;;;;0.40;0.30;;;3.60;99.90;;;;;;5092741;28;20396;-72
2022/01/05 09:18:47;;;;;;;0.40;0.30;;;3.60;99.90;;;;;;5111716;28;20376;-72
2022/01/05 09:21:13;;;;;;;0.40;0.20;;;3.60;99.90;;;;;;5093169;28;20929;-72
2022/01/05 09:23:38;;;;;;;0.40;0.30;;;3.60;99.90;;;;;;5111142;28;20418;-71
2022/01/05 09:26:04;;;;;;;0.40;0.20;;;3.60;99.90;;;;;;5110843;28;20427;-70
2022/01/05 09:28:30;;;;;;;0.40;0.20;;;3.50;99.90;;;;;;5110708;28;20454;-70
2022/01/05 09:30:56;;;;;;;0.40;0.30;;;3.50;99.90;;;;;;5111831;28;20426;-71
2022/01/05 09:33:24;;;;;;;0.40;0.20;;;3.50;99.90;;;;;;5111616;28;20406;-72
2022/01/05 09:36:00;;;;;;;0.40;0.20;;;3.60;99.90;;;;;;5111043;28;20384;-72
2022/01/05 09:44:01;;;;;;;0.40;0.20;;;3.20;99.90;;;;;;5117687;28;20777;-72
2022/01/05 09:46:47;;;;;;;0.40;0.20;;;3.10;99.90;;;;;;5132125;28;20402;-72
2022/01/05 09:49:22;;;;;;;0.40;0.20;;;3.10;99.90;;;;;;5132072;28;20572;-72
2022/01/05 09:51:51;;;;;;;0.40;0.20;;;3.00;99.90;;;;;;5131193;28;20874;-72
2022/01/05 09:54:17;;;;;;;0.40;0.28;;;3.00;99.90;;;;;;5131930;28;20443;-72
2022/01/05 09:56:43;;;;;;;0.40;0.30;;;3.00;99.90;;;;;;5130812;28;20489;-73
2022/01/05 09:59:09;;;;;;;0.70;0.70;;;2.90;99.90;;;;;;5131973;28;20411;-73
2022/01/05 10:01:36;;;;;;;0.40;0.30;;;3.00;99.90;;;;;;5131837;28;20375;-73
2022/01/05 10:04:03;;;;;;;0.40;0.30;;;3.00;98.60;;;;;;5131198;28;20665;-72
2022/01/05 10:06:34;;;;;;;0.40;0.20;;;3.00;98.00;;;;;;5131912;28;20414;-72
2022/01/05 10:09:00;;;;;;;0.40;0.30;;;3.00;96.30;;;;;;5112947;28;20720;-72
2022/01/05 10:11:27;;;;;;;0.40;0.20;;;3.00;97.10;;;;;;5131997;28;20385;-72
2022/01/05 10:13:53;;;;;;;0.40;0.30;;;3.10;97.20;;;;;;5130790;28;20776;-75
2022/01/05 10:16:18;;;;;;;0.40;0.20;;;3.20;96.90;;;;;;5131848;28;20473;-74
2022/01/05 10:18:45;;;;;;;0.40;0.20;;;3.20;95.90;;;;;;5131306;28;20870;-74
2022/01/05 10:21:14;;;;;;;0.40;0.20;;;3.10;95.50;;;;;;5131097;28;21167;-74
2022/01/05 10:23:53;;;;;;;0.40;0.20;;;3.00;95.30;;;;;;5131674;28;20479;-74
2022/01/05 10:26:29;;;;;;;0.40;0.20;;;3.00;95.40;;;;;;5131644;28;20418;-73
2022/01/05 10:28:57;;;;;;;0.40;0.30;;;3.00;95.10;;;;;;5131061;28;20389;-75
2022/01/05 10:31:25;;;;;;;0.40;0.20;;;3.20;95.90;;;;;;5113205;28;20893;-72
2022/01/05 10:33:51;;;;;;;0.40;0.22;;;3.30;95.50;;;;;;5133639;27;20470;-72
2022/01/05 10:36:17;;;;;;;0.40;0.30;;;3.40;95.70;;;;;;5134642;27;20524;-72
2022/01/05 10:38:57;;;;;;;0.40;0.20;;;3.60;94.20;;;;;;5135164;27;20378;-72
2022/01/05 10:41:30;;;;;;;0.40;0.20;;;3.70;93.70;;;;;;5134606;27;20382;-72
2022/01/05 10:44:14;;;;;;;0.40;0.20;;;4.00;94.40;;;;;;5128565;27;20451;-72
2022/01/05 10:46:49;;;;;;;0.40;0.20;;;4.40;92.60;;;;;;5114358;28;20408;-72
2022/01/05 10:49:31;;;;;;;0.40;0.20;;;4.30;92.30;;;;;;5113856;28;20372;-72
2022/01/05 10:52:02;;;;;;;0.40;0.20;;;4.30;92.60;;;;;;5114346;28;20384;-72
2022/01/05 10:54:30;;;;;;;0.40;0.30;;;4.40;92.90;;;;;;5114129;28;20451;-73
2022/01/05 10:57:13;;;;;;;0.40;0.20;;;4.40;92.10;;;;;;5096028;28;20697;-73
2022/01/05 10:59:42;;;;;;;0.40;0.20;;;4.50;90.40;;;;;;5114374;28;20712;-72
2022/01/05 11:02:29;;;;;;;0.40;0.20;;;4.70;90.60;;;;;;5114231;28;20375;-73
2022/01/05 11:05:12;;;;;;;0.40;0.30;;;4.80;90.30;;;;;;5114247;28;20392;-73
2022/01/05 11:07:39;;;;;;;0.40;0.20;;;4.70;90.30;;;;;;5113650;28;20388;-72
2022/01/05 11:10:08;;;;;;;0.40;0.20;;;4.80;89.60;;;;;;5113965;28;20372;-72
2022/01/05 11:12:40;;;;;;;0.40;0.30;;;5.20;89.50;;;;;;5113056;28;21395;-73
2022/01/05 11:15:18;;;;;;;0.40;0.30;;;5.20;87.80;;;;;;5113659;28;20729;-72
2022/01/05 11:18:18;;;;;;;0.40;0.20;;;5.10;88.90;;;;;;5113864;28;20456;-72
2022/01/05 11:20:58;;;;;;;5.20;0.60;;;5.00;89.30;;;;;;5113845;28;20467;-72
2022/01/05 11:23:25;;;;;;;0.40;0.20;;;5.00;87.70;;;;;;5112794;28;20897;-72
2022/01/05 11:25:54;;;;;;;0.40;0.20;;;4.70;88.60;;;;;;5113517;28;20416;-72
2022/01/05 11:28:22;;;;;;;0.40;0.20;;;4.40;89.80;;;;;;5113270;28;20860;-72
2022/01/05 11:30:50;;;;;;;0.40;0.20;;;4.50;89.10;;;;;;5113856;28;20376;-72
2022/01/05 11:33:16;;;;;;;0.40;0.20;;;4.40;90.40;;;;;;5113585;28;20419;-72
2022/01/05 11:35:42;;;;;;;0.40;0.20;;;4.30;90.30;;;;;;5113228;28;20764;-72
2022/01/05 11:38:09;;;;;;;0.40;0.20;;;4.30;90.30;;;;;;5113489;28;20368;-72
2022/01/05 11:40:38;;;;;;;0.40;0.20;;;4.60;90.20;;;;;;5112633;28;20392;-72
2022/01/05 11:43:11;;;;;;;0.40;0.30;;;4.60;89.20;;;;;;5113284;28;20745;-72
2022/01/05 11:45:45;;;;;;;0.40;0.20;;;4.50;87.40;;;;;;5112632;28;20404;-72
2022/01/05 11:48:13;;;;;;;0.40;0.30;;;4.40;88.00;;;;;;5113346;28;20376;-72
2022/01/05 11:50:54;;;;;;;0.40;0.20;;;4.20;87.30;;;;;;5112506;28;20380;-72
2022/01/05 11:53:41;;;;;;;0.40;0.20;;;4.20;88.00;;;;;;5113086;28;20913;-72
2022/01/05 11:56:27;;;;;;;0.40;0.20;;;4.10;89.70;;;;;;5113072;28;20437;-71
2022/01/05 11:58:59;;;;;;;0.40;0.20;;;4.10;89.50;;;;;;5111570;28;20680;-72
2022/01/05 12:01:31;;;;;;;0.40;0.20;;;4.60;88.90;;;;;;5112876;28;20385;-72
2022/01/05 12:03:57;;;;;;;1.10;0.80;;;4.80;84.80;;;;;;5112200;28;20385;-72
2022/01/05 12:06:27;;;;;;;0.40;0.30;;;5.20;84.20;;;;;;5112826;28;20837;-72
2022/01/05 12:08:55;;;;;;;0.40;0.20;;;5.50;82.40;;;;;;5112218;28;20376;-72
2022/01/05 12:11:35;;;;;;;0.40;0.20;;;5.30;81.20;;;;;;5113117;28;20388;-72
2022/01/05 12:14:03;;;;;;;0.50;0.50;;;6.00;81.30;;;;;;5112053;28;20384;-72
2022/01/05 12:16:29;;;;;;;0.40;0.20;;;6.10;80.00;;;;;;5112597;28;20381;-72
2022/01/05 12:19:08;;;;;;;0.40;0.20;;;5.80;80.40;;;;;;5111827;28;20381;-72
2022/01/05 12:21:46;;;;;;;0.40;0.20;;;6.30;80.60;;;;;;5112475;28;20828;-72
2022/01/05 12:24:13;;;;;;;0.40;0.20;;;5.70;79.40;;;;;;5112592;28;20384;-72
2022/01/05 12:26:39;;;;;;;0.40;0.20;;;5.50;83.10;;;;;;5112021;28;20424;-72
2022/01/05 12:29:05;;;;;;;0.40;0.20;;;5.30;84.00;;;;;;5111742;28;21278;-72
2022/01/05 12:31:56;;;;;;;0.40;0.25;;;4.80;85.30;;;;;;5112541;28;20420;-72
2022/01/05 12:34:57;;;;;;;0.40;0.20;;;4.60;85.60;;;;;;5112359;28;20412;-72
2022/01/05 12:37:44;;;;;;;0.40;0.20;;;4.50;86.90;;;;;;5112338;28;20759;-71
2022/01/05 12:40:29;;;;;;;0.40;0.20;;;4.30;86.50;;;;;;5111608;28;20380;-72
2022/01/05 12:43:10;;;;;;;0.40;0.20;;;4.40;85.70;;;;;;5111751;28;20380;-72
2022/01/05 12:45:45;;;;;;;0.40;0.20;;;4.20;84.60;;;;;;5132192;27;20994;-72
2022/01/05 12:48:35;;;;;;;0.40;0.30;;;4.30;86.40;;;;;;5132130;27;20473;-71
2022/01/05 12:51:20;;;;;;;0.40;0.20;;;4.40;86.70;;;;;;5067503;27;20781;-72
2022/01/05 12:54:05;;;;;;;0.40;0.30;;;4.40;87.40;;;;;;5132554;27;20387;-72
2022/01/05 12:56:35;;;;;;;0.40;0.20;;;4.50;87.40;;;;;;5132342;27;20491;-72
2022/01/05 12:59:05;;;;;;;0.40;0.20;;;4.50;86.90;;;;;;5131707;27;20425;-72
2022/01/05 13:01:33;;;;;;;0.40;0.20;;;4.50;86.20;;;;;;5132501;27;20367;-72
2022/01/05 13:04:00;;;;;;;0.40;0.20;;;4.60;85.40;;;;;;5132116;27;20482;-73
2022/01/05 13:06:28;;;;;;;0.40;0.20;;;4.60;84.70;;;;;;5132370;27;20407;-72